createdAt,value
2023-02-11T00:00:55.067Z,18.08
2023-02-11T00:03:40.108Z,17.85
2023-02-11T00:06:27.448Z,17.80
2023-02-11T00:09:12.105Z,18.77
2023-02-11T00:11:56.961Z,18.70
2023-02-11T00:14:41.692Z,17.48
2023-02-11T00:17:26.855Z,18.10
2023-02-11T00:22:56.592Z,15.98
2023-02-11T00:25:42.284Z,16.60
2023-02-11T00:28:26.849Z,17.02
2023-02-11T00:33:57.233Z,17.27
2023-02-11T00:39:26.736Z,16.15
2023-02-11T00:42:14.812Z,18.33
2023-02-11T00:44:59.676Z,16.42
2023-02-11T00:50:29.046Z,16.83
2023-02-11T00:55:58.681Z,16.00
2023-02-11T00:58:44.069Z,17.10
2023-02-11T01:01:29.007Z,18.65
2023-02-11T01:06:58.465Z,18.55
2023-02-11T01:09:43.902Z,18.55
2023-02-11T01:12:28.966Z,19.52
2023-02-11T01:15:18.149Z,20.33
2023-02-11T01:18:04.453Z,20.63
2023-02-11T01:20:51.666Z,20.20
2023-02-11T01:23:36.372Z,19.70
2023-02-11T01:26:22.347Z,21.38
2023-02-11T01:29:08.843Z,19.83
2023-02-11T01:34:38.146Z,18.38
2023-02-11T01:37:23.426Z,18.45
2023-02-11T01:40:13.476Z,18.95
2023-02-11T01:42:58.029Z,18.58
2023-02-11T01:45:45.582Z,19.58
2023-02-11T01:48:40.352Z,17.15
2023-02-11T01:51:30.697Z,16.65
2023-02-11T01:54:40.049Z,17.98
2023-02-11T01:57:29.116Z,16.55
2023-02-11T02:00:23.553Z,15.65
2023-02-11T02:03:21.952Z,16.73
2023-02-11T02:06:19.380Z,16.42
2023-02-11T02:09:08.751Z,16.63
2023-02-11T02:11:53.715Z,18.40
2023-02-11T02:17:41.199Z,18.15
2023-02-11T02:20:54.126Z,16.45
2023-02-11T02:23:58.119Z,16.42
2023-02-11T02:27:17.274Z,16.77
2023-02-11T02:30:29.214Z,16.65
2023-02-11T02:33:23.303Z,15.57
2023-02-11T02:36:20.476Z,16.80
2023-02-11T02:39:17.864Z,17.45
2023-02-11T02:42:04.711Z,16.48
2023-02-11T02:44:51.314Z,18.65
2023-02-11T02:47:36.262Z,16.92
2023-02-11T02:53:45.296Z,15.38
2023-02-11T02:56:42.788Z,15.38
2023-02-11T03:02:45.526Z,14.88
2023-02-11T03:05:42.213Z,15.25
2023-02-11T03:08:31.812Z,16.05
2023-02-11T03:11:19.852Z,17.08
2023-02-11T03:14:08.738Z,17.88
2023-02-11T03:16:56.169Z,17.85
2023-02-11T03:19:44.588Z,19.02
2023-02-11T03:22:40.004Z,17.63
2023-02-11T03:25:32.679Z,17.60
2023-02-11T03:28:34.978Z,16.80
2023-02-11T03:31:30.292Z,18.27
2023-02-11T03:34:22.897Z,18.83
2023-02-11T03:37:32.044Z,18.10
2023-02-11T03:40:26.419Z,18.20
2023-02-11T03:43:22.060Z,17.80
2023-02-11T03:46:09.040Z,17.95
2023-02-11T03:48:58.648Z,18.50
2023-02-11T03:51:43.806Z,19.20
2023-02-11T03:54:30.260Z,18.98
2023-02-11T03:57:14.945Z,19.35
2023-02-11T04:00:00.832Z,19.88
2023-02-11T04:02:45.844Z,19.88
2023-02-11T04:05:31.062Z,20.13
2023-02-11T04:08:16.350Z,19.27
2023-02-11T04:11:01.161Z,20.02
2023-02-11T04:13:46.155Z,19.42
2023-02-11T04:16:31.158Z,19.10
2023-02-11T04:19:16.125Z,20.02
2023-02-11T04:22:01.772Z,22.85
2023-02-11T04:24:46.417Z,20.20
2023-02-11T04:27:31.431Z,20.80
2023-02-11T04:30:16.419Z,20.42
2023-02-11T04:33:01.441Z,21.38
2023-02-11T04:38:31.414Z,19.23
2023-02-11T04:41:16.282Z,22.27
2023-02-11T04:46:45.886Z,19.08
2023-02-11T04:49:30.672Z,20.52
2023-02-11T04:55:00.064Z,20.98
2023-02-11T04:57:45.161Z,21.20
2023-02-11T05:00:29.635Z,21.08
2023-02-11T05:03:15.342Z,21.15
2023-02-11T05:06:00.545Z,22.70
2023-02-11T05:08:45.669Z,21.63
2023-02-11T05:14:15.255Z,21.42
2023-02-11T05:17:00.091Z,20.73
2023-02-11T05:19:44.673Z,20.38
2023-02-11T05:22:29.777Z,18.70
2023-02-11T05:27:59.249Z,19.02
2023-02-11T05:30:43.935Z,19.42
2023-02-11T05:36:13.303Z,20.77
2023-02-11T05:38:58.319Z,19.77
2023-02-11T05:44:27.749Z,20.35
2023-02-11T05:47:13.115Z,21.45
2023-02-11T05:49:57.874Z,22.92
2023-02-11T05:52:42.809Z,22.55
2023-02-11T05:58:12.948Z,22.17
2023-02-11T06:00:57.644Z,22.05
2023-02-11T06:03:43.112Z,22.95
2023-02-11T06:06:28.060Z,24.00
2023-02-11T06:11:57.606Z,21.75
2023-02-11T06:14:42.112Z,21.85
2023-02-11T06:17:30.997Z,21.38
2023-02-11T06:20:15.854Z,22.02
2023-02-11T06:23:00.836Z,20.77
2023-02-11T06:28:35.154Z,21.67
2023-02-11T06:31:20.351Z,21.98
2023-02-11T06:36:50.257Z,19.17
2023-02-11T06:39:35.589Z,21.55
2023-02-11T06:45:08.409Z,21.17
2023-02-11T06:47:53.377Z,21.80
2023-02-11T06:53:22.972Z,19.45
2023-02-11T06:56:11.024Z,22.55
2023-02-11T06:58:56.113Z,22.67
2023-02-11T07:01:41.182Z,23.88
2023-02-11T07:07:10.333Z,21.33
2023-02-11T07:09:55.380Z,22.63
2023-02-11T07:12:40.721Z,22.23
2023-02-11T07:15:25.758Z,22.88
2023-02-11T07:18:11.966Z,22.42
2023-02-11T07:20:58.811Z,22.13
2023-02-11T07:26:30.980Z,19.50
2023-02-11T07:29:15.706Z,20.70
2023-02-11T07:34:47.423Z,19.63
2023-02-11T07:37:35.814Z,19.83
2023-02-11T07:40:23.718Z,18.85
2023-02-11T07:43:08.808Z,19.40
2023-02-11T07:45:54.082Z,19.38
2023-02-11T07:51:26.647Z,18.85
2023-02-11T07:54:11.625Z,22.60
2023-02-11T07:56:56.474Z,20.90
2023-02-11T08:02:25.838Z,21.83
2023-02-11T08:07:55.479Z,19.95
2023-02-11T08:13:26.316Z,19.35
2023-02-11T08:16:19.011Z,20.23
2023-02-11T08:19:10.374Z,18.58
2023-02-11T08:21:56.404Z,19.92
2023-02-11T08:24:41.103Z,18.83
2023-02-11T08:27:26.711Z,19.90
2023-02-11T08:30:12.106Z,19.65
2023-02-11T08:32:57.201Z,18.77
2023-02-11T08:35:42.268Z,19.92
2023-02-11T08:38:27.057Z,18.45
2023-02-11T08:41:14.293Z,18.88
2023-02-11T08:43:59.751Z,19.10
2023-02-11T08:46:44.718Z,19.02
2023-02-11T08:49:30.878Z,19.30
2023-02-11T08:52:15.717Z,18.13
2023-02-11T08:55:00.844Z,17.73
2023-02-11T09:00:30.854Z,17.38
2023-02-11T09:03:16.140Z,16.45
2023-02-11T09:06:08.268Z,16.20
2023-02-11T09:08:55.082Z,14.85
2023-02-11T09:11:41.411Z,15.48
2023-02-11T09:14:26.670Z,14.30
2023-02-11T09:17:11.246Z,15.00
2023-02-11T09:19:56.225Z,16.30
2023-02-11T09:22:41.118Z,16.33
2023-02-11T09:25:26.258Z,13.10
2023-02-11T09:28:11.246Z,15.30
2023-02-11T09:30:56.330Z,16.30
2023-02-11T09:36:34.009Z,13.32
2023-02-11T09:39:19.816Z,13.77
2023-02-11T09:42:42.494Z,14.27
2023-02-11T09:45:29.256Z,12.70
2023-02-11T09:48:18.173Z,12.82
2023-02-11T09:51:04.011Z,14.15
2023-02-11T09:53:52.193Z,13.27
2023-02-11T09:56:36.641Z,14.57
2023-02-11T09:59:22.058Z,13.93
2023-02-11T10:02:23.893Z,13.45
2023-02-11T10:05:14.946Z,12.13
2023-02-11T10:11:01.461Z,11.43
2023-02-11T10:13:55.233Z,10.85
2023-02-11T10:16:42.953Z,11.75
2023-02-11T10:19:33.800Z,11.30
2023-02-11T10:22:26.064Z,11.05
2023-02-11T10:25:20.479Z,11.48
2023-02-11T10:28:17.263Z,11.18
2023-02-11T10:31:06.263Z,11.40
2023-02-11T10:33:53.122Z,11.40
2023-02-11T10:36:41.334Z,10.45
2023-02-11T10:39:27.394Z,10.02
2023-02-11T10:42:14.077Z,10.75
2023-02-11T10:45:06.599Z,10.18
2023-02-11T10:47:51.108Z,10.13
2023-02-11T10:50:36.390Z,10.93
2023-02-11T10:53:21.091Z,10.02
2023-02-11T10:56:07.885Z,8.93
2023-02-11T10:58:59.794Z,9.10
2023-02-11T11:01:48.662Z,8.90
2023-02-11T11:04:33.110Z,9.32
2023-02-11T11:07:24.395Z,8.50
2023-02-11T11:10:35.714Z,9.00
2023-02-11T11:13:26.518Z,8.80
2023-02-11T11:16:11.733Z,8.68
2023-02-11T11:19:05.882Z,9.38
2023-02-11T11:21:53.114Z,9.70
2023-02-11T11:24:43.970Z,9.43
2023-02-11T11:27:29.532Z,9.63
2023-02-11T11:30:16.604Z,9.40
2023-02-11T11:33:01.572Z,8.57
2023-02-11T11:35:57.502Z,8.95
2023-02-11T11:38:51.855Z,9.63
2023-02-11T11:41:49.374Z,9.60
2023-02-11T11:44:39.303Z,9.60
2023-02-11T11:47:35.476Z,8.68
2023-02-11T11:50:23.113Z,8.50
2023-02-11T11:53:20.173Z,9.30
2023-02-11T11:56:11.577Z,9.43
2023-02-11T11:59:00.107Z,9.32
2023-02-11T12:02:08.510Z,8.98
2023-02-11T12:05:02.129Z,9.70
2023-02-11T12:08:03.279Z,10.05
2023-02-11T12:11:16.128Z,9.32
2023-02-11T12:14:21.174Z,9.82
2023-02-11T12:17:27.688Z,9.80
2023-02-11T12:20:46.185Z,10.90
2023-02-11T12:23:59.622Z,11.48
2023-02-11T12:26:51.165Z,9.90
2023-02-11T12:30:06.702Z,11.30
2023-02-11T12:33:00.750Z,10.23
2023-02-11T12:36:14.788Z,9.98
2023-02-11T12:39:13.061Z,11.02
2023-02-11T12:42:25.418Z,11.18
2023-02-11T12:45:10.324Z,11.93
2023-02-11T12:48:22.294Z,11.85
2023-02-11T12:51:20.728Z,12.02
2023-02-11T12:54:14.313Z,11.82
2023-02-11T12:57:25.959Z,11.25
2023-02-11T13:00:18.635Z,12.45
2023-02-11T13:03:16.402Z,10.52
2023-02-11T13:06:08.771Z,11.23
2023-02-11T13:09:00.751Z,11.10
2023-02-11T13:11:51.407Z,11.70
2023-02-11T13:14:40.493Z,11.80
2023-02-11T13:18:00.503Z,11.23
2023-02-11T13:21:05.000Z,10.27
2023-02-11T13:24:04.959Z,10.73
2023-02-11T13:27:03.012Z,11.20
2023-02-11T13:30:13.253Z,11.70
2023-02-11T13:32:59.988Z,12.43
2023-02-11T13:35:56.875Z,11.60
2023-02-11T13:38:51.951Z,12.23
2023-02-11T13:41:40.211Z,12.82
2023-02-11T13:44:27.661Z,11.88
2023-02-11T13:47:26.378Z,11.80
2023-02-11T13:50:23.820Z,11.90
2023-02-11T13:53:08.825Z,11.18
2023-02-11T14:02:06.961Z,10.98
2023-02-11T14:05:22.941Z,13.32
2023-02-11T14:08:29.945Z,12.13
2023-02-11T14:11:23.683Z,12.23
2023-02-11T14:14:16.863Z,12.02
2023-02-11T14:17:07.987Z,12.63
2023-02-11T14:19:52.866Z,12.95
2023-02-11T14:22:47.144Z,13.65
2023-02-11T14:25:32.298Z,13.00
2023-02-11T14:28:32.163Z,12.68
2023-02-11T14:32:06.961Z,13.85
2023-02-11T14:35:12.330Z,12.57
2023-02-11T14:38:34.488Z,13.95
2023-02-11T14:41:25.540Z,13.10
2023-02-11T14:44:19.132Z,13.27
2023-02-11T14:47:05.093Z,15.38
2023-02-11T14:49:50.145Z,14.73
2023-02-11T14:52:38.130Z,13.75
2023-02-11T14:55:32.891Z,15.05
2023-02-11T14:58:22.205Z,13.75
2023-02-11T15:01:29.075Z,15.02
2023-02-11T15:04:43.344Z,12.68
2023-02-11T15:07:28.442Z,12.95
2023-02-11T15:10:21.570Z,13.43
2023-02-11T15:13:07.643Z,11.70
2023-02-11T15:16:01.375Z,13.48
2023-02-11T15:18:53.400Z,12.98
2023-02-11T15:21:39.355Z,12.68
2023-02-11T15:24:29.198Z,13.00
2023-02-11T15:27:15.053Z,14.32
2023-02-11T15:30:00.063Z,13.35
2023-02-11T15:35:31.058Z,12.45
2023-02-11T15:38:15.965Z,13.48
2023-02-11T15:43:49.204Z,13.80
2023-02-11T15:46:39.090Z,14.57
2023-02-11T15:49:25.769Z,14.45
2023-02-11T15:52:11.453Z,13.32
2023-02-11T15:55:01.218Z,15.75
2023-02-11T15:57:53.056Z,16.20
2023-02-11T16:00:46.717Z,16.42
2023-02-11T16:03:32.201Z,14.98
2023-02-11T16:06:25.880Z,15.45
2023-02-11T16:09:10.789Z,13.13
2023-02-11T16:11:58.343Z,15.07
2023-02-11T16:14:43.373Z,14.48
2023-02-11T16:17:29.227Z,15.23
2023-02-11T16:20:19.568Z,16.10
2023-02-11T16:23:06.873Z,14.43
2023-02-11T16:25:57.792Z,16.00
2023-02-11T16:28:42.528Z,15.75
2023-02-11T16:31:36.862Z,15.50
2023-02-11T16:34:24.380Z,15.70
2023-02-11T16:37:10.182Z,14.93
2023-02-11T16:39:56.027Z,14.90
2023-02-11T16:42:40.861Z,15.63
2023-02-11T16:45:26.198Z,15.73
2023-02-11T16:48:16.606Z,15.35
2023-02-11T16:51:01.346Z,16.38
2023-02-11T16:56:31.394Z,15.13
2023-02-11T17:02:01.371Z,15.32
2023-02-11T17:04:46.382Z,15.10
2023-02-11T17:10:21.802Z,15.20
2023-02-11T17:13:07.215Z,15.70
2023-02-11T17:15:52.285Z,16.23
2023-02-11T17:18:36.978Z,17.17
2023-02-11T17:21:25.924Z,16.52
2023-02-11T17:24:14.522Z,16.17
2023-02-11T17:26:59.561Z,16.35
2023-02-11T17:32:28.924Z,16.20
2023-02-11T17:35:14.247Z,19.80
2023-02-11T17:40:45.500Z,16.90
2023-02-11T17:43:31.388Z,18.85
2023-02-11T17:46:16.605Z,17.88
2023-02-11T17:51:47.150Z,19.85
2023-02-11T17:57:17.208Z,20.42
2023-02-11T18:00:03.439Z,18.90
2023-02-11T18:03:02.058Z,18.88
2023-02-11T18:05:46.986Z,20.75
2023-02-11T18:08:32.481Z,20.52
2023-02-11T18:11:17.301Z,20.80
2023-02-11T18:14:04.271Z,21.25
2023-02-11T18:16:51.214Z,21.45
2023-02-11T18:19:36.916Z,20.30
2023-02-11T18:22:21.673Z,22.48
2023-02-11T18:27:52.499Z,18.42
2023-02-11T18:30:37.144Z,20.17
2023-02-11T18:33:22.293Z,18.95
2023-02-11T18:36:14.461Z,20.98
2023-02-11T18:39:00.103Z,20.05
2023-02-11T18:41:45.928Z,21.08
2023-02-11T18:44:30.945Z,21.02
2023-02-11T18:50:00.872Z,19.65
2023-02-11T18:55:31.003Z,18.92
2023-02-11T19:01:00.668Z,19.77
2023-02-11T19:03:46.404Z,19.13
2023-02-11T19:06:34.431Z,21.08
2023-02-11T19:09:19.997Z,20.38
2023-02-11T19:12:07.245Z,20.10
2023-02-11T19:14:52.327Z,21.63
2023-02-11T19:17:37.933Z,22.92
2023-02-11T19:20:22.504Z,21.05
2023-02-11T19:23:07.476Z,21.50
2023-02-11T19:25:52.824Z,21.35
2023-02-11T19:28:38.699Z,22.08
2023-02-11T19:31:23.560Z,20.15
2023-02-11T19:34:10.509Z,21.13
2023-02-11T19:36:56.065Z,21.27
2023-02-11T19:39:42.065Z,19.45
2023-02-11T19:42:27.669Z,20.70
2023-02-11T19:45:12.652Z,19.58
2023-02-11T19:47:57.922Z,21.40
2023-02-11T19:53:26.833Z,20.58
2023-02-11T19:56:14.116Z,21.65
2023-02-11T19:59:00.790Z,21.95
2023-02-11T20:01:48.871Z,22.52
2023-02-11T20:04:33.841Z,23.67
2023-02-11T20:07:18.568Z,21.55
2023-02-11T20:10:04.311Z,23.08
2023-02-11T20:12:49.956Z,22.17
2023-02-11T20:15:34.984Z,21.98
2023-02-11T20:18:19.741Z,22.27
2023-02-11T20:24:06.146Z,20.98
2023-02-11T20:26:54.758Z,21.45
2023-02-11T20:29:39.748Z,22.30
2023-02-11T20:35:09.898Z,20.13
2023-02-11T20:37:54.715Z,20.90
2023-02-11T20:40:39.733Z,21.17
2023-02-11T20:43:24.924Z,20.15
2023-02-11T20:46:09.984Z,21.48
2023-02-11T20:48:56.039Z,21.73
2023-02-11T20:51:42.046Z,20.27
2023-02-11T20:54:27.241Z,21.55
2023-02-11T20:59:57.092Z,19.77
2023-02-11T21:02:42.136Z,20.60
2023-02-11T21:05:28.649Z,19.70
2023-02-11T21:08:13.514Z,20.98
2023-02-11T21:13:43.609Z,20.35
2023-02-11T21:19:13.965Z,19.05
2023-02-11T21:24:44.900Z,19.83
2023-02-11T21:27:32.630Z,21.73
2023-02-11T21:30:17.538Z,22.50
2023-02-11T21:33:02.377Z,21.85
2023-02-11T21:38:32.558Z,21.58
2023-02-11T21:41:19.167Z,22.58
2023-02-11T21:44:04.065Z,19.95
2023-02-11T21:46:48.675Z,21.48
2023-02-11T21:52:18.699Z,21.23
2023-02-11T21:57:48.488Z,17.88
2023-02-11T22:00:33.831Z,20.55
2023-02-11T22:03:18.697Z,19.83
2023-02-11T22:06:08.510Z,18.15
2023-02-11T22:08:54.792Z,19.85
2023-02-11T22:11:40.185Z,20.75
2023-02-11T22:14:24.856Z,20.00
2023-02-11T22:17:09.854Z,18.48
2023-02-11T22:19:56.522Z,20.02
2023-02-11T22:22:41.304Z,18.67
2023-02-11T22:25:26.319Z,18.77
2023-02-11T22:28:11.315Z,18.40
2023-02-11T22:30:57.615Z,19.75
2023-02-11T22:33:43.173Z,17.70
2023-02-11T22:36:30.319Z,18.90
2023-02-11T22:39:16.809Z,17.10
2023-02-11T22:42:01.856Z,17.85
2023-02-11T22:44:46.672Z,17.00
2023-02-11T22:47:31.636Z,15.68
2023-02-11T22:53:01.165Z,14.13
2023-02-11T22:55:46.062Z,14.43
2023-02-11T22:58:31.436Z,13.85
2023-02-11T23:01:16.993Z,14.48
2023-02-11T23:04:04.213Z,14.07
2023-02-11T23:06:49.708Z,12.48
2023-02-11T23:09:34.477Z,13.10
2023-02-11T23:12:19.539Z,11.85
2023-02-11T23:15:05.296Z,12.15
2023-02-11T23:17:50.074Z,12.40
2023-02-11T23:20:37.105Z,12.32
2023-02-11T23:23:21.610Z,12.40
2023-02-11T23:26:11.784Z,11.65
2023-02-11T23:28:58.339Z,12.45
2023-02-11T23:31:45.367Z,11.55
2023-02-11T23:34:30.268Z,10.90
2023-02-11T23:37:15.258Z,11.15
2023-02-11T23:40:00.226Z,11.10
2023-02-11T23:42:45.382Z,11.13
2023-02-11T23:45:30.129Z,9.57
2023-02-11T23:48:14.969Z,10.23
2023-02-11T23:50:59.921Z,13.15
2023-02-11T23:53:45.615Z,11.48
2023-02-11T23:56:30.706Z,10.07
